Time;durP1;ratioP1;P1;durP2;ratioP2;P2;SDS_P1;SDS_P2;PMS_P1;PMS_P2;Temp;Humidity;BMP_temperature;BMP_pressure;BME280_temperature;BME280_humidity;BME280_pressure;Samples;Min_cycle;Max_cycle;Signal;HPM_P1;HPM_P2
2021/12/22 00:01:22;;;;;;;78.13;32.42;;;1.40;94.60;;;;;;6185096;23;20001;-89
2021/12/22 00:03:52;;;;;;;82.50;31.75;;;1.50;94.40;;;;;;6184051;23;20043;-89
2021/12/22 00:06:31;;;;;;;77.40;33.80;;;1.50;94.50;;;;;;6184119;23;20007;-90
2021/12/22 00:09:08;;;;;;;;;;;;;;;;;;;;;
2021/12/22 00:11:34;;;;;;;73.75;32.22;;;1.50;95.00;;;;;;6211028;23;20087;-90
2021/12/22 00:14:00;;;;;;;79.20;32.92;;;1.40;95.00;;;;;;6184261;23;20032;-91
2021/12/22 00:16:37;;;;;;;71.85;31.38;;;1.30;95.00;;;;;;6210915;23;20080;-90
2021/12/22 00:19:03;;;;;;;76.43;32.92;;;1.40;95.00;;;;;;6183953;23;20004;-90
2021/12/22 00:21:29;;;;;;;69.20;32.28;;;1.50;95.00;;;;;;6184529;23;20005;-90
2021/12/22 00:23:55;;;;;;;77.28;34.05;;;1.40;94.90;;;;;;6184223;23;20363;-91
2021/12/22 00:26:32;;;;;;;76.50;32.20;;;1.40;95.20;;;;;;6183894;23;20012;-90
2021/12/22 00:28:58;;;;;;;75.63;30.90;;;1.40;94.90;;;;;;6183951;23;20000;-90
2021/12/22 00:31:24;;;;;;;71.82;30.45;;;1.50;94.90;;;;;;6184080;23;20001;-92
2021/12/22 00:33:57;;;;;;;72.93;31.90;;;1.30;95.00;;;;;;6184023;23;20421;-91
2021/12/22 00:36:24;;;;;;;69.43;30.63;;;1.40;94.80;;;;;;6183815;23;20001;-89
2021/12/22 00:38:52;;;;;;;72.22;32.50;;;1.40;94.90;;;;;;6184095;23;20017;-91
2021/12/22 00:41:18;;;;;;;70.00;32.38;;;1.50;94.90;;;;;;6185531;23;20000;-91
2021/12/22 00:43:44;;;;;;;77.78;32.40;;;1.30;95.30;;;;;;6213274;23;20008;-92
2021/12/22 00:46:20;;;;;;;70.07;33.53;;;1.40;94.90;;;;;;6185892;23;20023;-92
2021/12/22 00:48:46;;;;;;;73.00;31.13;;;1.50;95.20;;;;;;6186937;23;20004;-89
2021/12/22 00:51:11;;;;;;;69.22;30.73;;;1.30;95.00;;;;;;6185787;23;20015;-90
2021/12/22 00:53:37;;;;;;;68.72;31.02;;;1.30;95.40;;;;;;6185508;23;20008;-92
2021/12/22 00:56:04;;;;;;;71.97;32.30;;;1.20;95.30;;;;;;6185948;23;20032;-90
2021/12/22 00:58:32;;;;;;;71.78;30.77;;;1.20;95.30;;;;;;6185883;23;20011;-91
2021/12/22 01:01:00;;;;;;;78.45;32.85;;;1.20;95.40;;;;;;6186251;23;20001;-90
2021/12/22 01:03:35;;;;;;;66.72;30.40;;;1.30;95.50;;;;;;6186161;23;20008;-91
2021/12/22 01:06:04;;;;;;;65.53;29.80;;;1.20;95.60;;;;;;6187002;23;20055;-92
2021/12/22 01:08:30;;;;;;;69.57;30.98;;;1.30;95.50;;;;;;6190813;23;20058;-91
2021/12/22 01:10:58;;;;;;;68.43;30.08;;;1.20;95.40;;;;;;6192427;23;20005;-90
2021/12/22 01:13:24;;;;;;;71.75;30.35;;;1.10;95.50;;;;;;6191683;23;20340;-90
2021/12/22 01:15:52;;;;;;;60.83;28.85;;;1.20;95.40;;;;;;6186155;23;20004;-91
2021/12/22 01:18:29;;;;;;;63.50;30.67;;;1.20;95.40;;;;;;6186721;23;20032;-90
2021/12/22 01:23:35;;;;;;;63.92;28.00;;;1.10;95.40;;;;;;6212504;23;20639;-91
2021/12/22 01:26:07;;;;;;;67.15;28.90;;;1.10;95.60;;;;;;6185296;23;20058;-92
2021/12/22 01:28:40;;;;;;;66.07;29.60;;;1.20;95.70;;;;;;6185435;23;20027;-91
2021/12/22 01:31:14;;;;;;;62.63;28.67;;;1.10;95.60;;;;;;6185588;23;20008;-91
2021/12/22 01:33:42;;;;;;;62.30;28.88;;;1.10;95.60;;;;;;6185384;23;20429;-92
2021/12/22 01:36:17;;;;;;;57.67;28.77;;;1.20;95.50;;;;;;6185695;23;20011;-90
2021/12/22 01:38:52;;;;;;;64.30;29.83;;;1.10;95.70;;;;;;6185217;23;20007;-91
2021/12/22 01:41:44;;;;;;;63.03;28.00;;;1.10;95.30;;;;;;6186414;23;20388;-91
2021/12/22 01:44:23;;;;;;;62.28;28.45;;;1.10;95.40;;;;;;6185201;23;20040;-90
2021/12/22 01:49:50;;;;;;;57.55;27.85;;;1.10;95.50;;;;;;6212312;23;20012;-90
2021/12/22 01:52:28;;;;;;;61.17;28.00;;;1.00;95.20;;;;;;6185592;23;20000;-91
2021/12/22 01:55:02;;;;;;;58.72;28.73;;;1.20;95.20;;;;;;6185435;23;20392;-90
2021/12/22 01:57:29;;;;;;;60.80;28.98;;;1.10;95.20;;;;;;6186051;23;20005;-92
2021/12/22 02:00:04;;;;;;;58.90;26.88;;;1.00;95.20;;;;;;6185708;23;20009;-92
2021/12/22 02:02:51;;;;;;;58.88;27.85;;;1.00;95.10;;;;;;6185311;23;20009;-91
2021/12/22 02:05:24;;;;;;;58.72;28.10;;;0.90;95.20;;;;;;6211669;23;20461;-90
2021/12/22 02:08:05;;;;;;;60.65;28.80;;;0.90;95.00;;;;;;6186599;23;20008;-90
2021/12/22 02:10:36;;;;;;;58.15;28.45;;;0.90;95.20;;;;;;6185476;23;20345;-91
2021/12/22 02:13:03;;;;;;;62.78;29.27;;;0.90;95.20;;;;;;6185301;23;20091;-90
2021/12/22 02:15:33;;;;;;;60.72;28.23;;;0.90;95.10;;;;;;6185614;23;20083;-91
2021/12/22 02:18:02;;;;;;;57.20;27.08;;;0.90;95.10;;;;;;6185378;23;20012;-90
2021/12/22 02:20:28;;;;;;;61.67;29.15;;;0.90;95.20;;;;;;6185417;23;20009;-91
2021/12/22 02:22:58;;;;;;;63.08;28.02;;;1.30;95.40;;;;;;6185027;23;20353;-90
2021/12/22 02:25:41;;;;;;;61.85;29.52;;;0.90;95.20;;;;;;6212124;23;20058;-91
2021/12/22 02:28:14;;;;;;;60.30;27.15;;;0.80;95.10;;;;;;6185065;23;20004;-91
2021/12/22 02:30:40;;;;;;;58.55;28.13;;;0.80;95.20;;;;;;6185914;23;20009;-92
2021/12/22 02:33:32;;;;;;;63.60;28.65;;;0.70;95.20;;;;;;6185217;23;20322;-90
2021/12/22 02:38:41;;;;;;;60.90;29.20;;;0.60;95.10;;;;;;6211718;23;20009;-90
2021/12/22 02:41:12;;;;;;;55.30;27.73;;;0.50;95.20;;;;;;6185079;23;20054;-92
2021/12/22 02:43:56;;;;;;;58.63;27.13;;;0.50;95.30;;;;;;6184703;23;20008;-92
2021/12/22 02:46:31;;;;;;;62.90;27.88;;;0.60;95.30;;;;;;6212898;23;20012;-92
2021/12/22 02:49:12;;;;;;;63.67;27.90;;;0.70;95.20;;;;;;6185289;23;20008;-92
2021/12/22 02:51:48;;;;;;;;;;;;;;;;;;;;;
2021/12/22 02:54:29;;;;;;;58.22;28.92;;;0.50;95.10;;;;;;6211797;23;20076;-90
2021/12/22 03:06:24;;;;;;;;;;;;;;;;;;;;;
2021/12/22 03:08:57;;;;;;;54.45;25.08;;;0.60;95.40;;;;;;6146294;23;20081;-91
2021/12/22 03:11:36;;;;;;;;;;;;;;;;;;;;;
2021/12/22 03:14:14;;;;;;;;;;;;;;;;;;;;;
2021/12/22 03:16:43;;;;;;;51.60;25.48;;;0.40;95.40;;;;;;6211920;23;20080;-92
2021/12/22 03:19:17;;;;;;;53.08;25.77;;;0.40;95.40;;;;;;6211367;23;20005;-92
2021/12/22 03:21:43;;;;;;;51.65;26.40;;;0.40;95.30;;;;;;6184743;23;20039;-89
2021/12/22 03:24:13;;;;;;;55.35;26.60;;;0.60;95.20;;;;;;6185313;23;20429;-90
2021/12/22 03:26:44;;;;;;;52.33;27.48;;;0.40;95.30;;;;;;6184977;23;20008;-91
2021/12/22 03:29:58;;;;;;;57.15;26.90;;;0.40;95.40;;;;;;6185127;23;20004;-92
2021/12/22 03:32:50;;;;;;;53.50;26.27;;;0.40;95.40;;;;;;6179011;23;20449;-91
2021/12/22 03:35:37;;;;;;;51.47;25.65;;;0.40;95.20;;;;;;6213216;23;20001;-91
2021/12/22 03:38:03;;;;;;;57.30;26.10;;;0.40;95.30;;;;;;6201009;23;20004;-91
2021/12/22 03:40:45;;;;;;;;;;;;;;;;;;;;;
2021/12/22 03:43:23;;;;;;;55.72;26.70;;;0.50;95.60;;;;;;6225326;23;20016;-93
2021/12/22 03:45:51;;;;;;;52.65;26.88;;;0.50;95.40;;;;;;6186037;23;20047;-90
2021/12/22 03:48:18;;;;;;;53.42;26.20;;;0.60;95.50;;;;;;6185031;23;20138;-93
2021/12/22 03:50:54;;;;;;;;;;;;;;;;;;;;;
2021/12/22 03:53:26;;;;;;;53.38;27.42;;;0.50;95.90;;;;;;6211737;23;20075;-92
2021/12/22 03:55:58;;;;;;;51.63;25.38;;;0.40;95.60;;;;;;6185482;23;20087;-91
2021/12/22 03:58:30;;;;;;;56.63;27.75;;;0.40;95.70;;;;;;6185877;23;20012;-91
2021/12/22 04:00:59;;;;;;;55.63;25.42;;;0.50;95.70;;;;;;6185637;23;20456;-91
2021/12/22 04:03:29;;;;;;;61.65;26.55;;;0.70;95.80;;;;;;6185650;23;20111;-93
2021/12/22 04:06:06;;;;;;;58.08;27.08;;;0.50;95.80;;;;;;6185775;23;20086;-90
2021/12/22 04:08:44;;;;;;;;;;;;;;;;;;;;;
2021/12/22 04:15:19;;;;;;;51.15;24.85;;;0.50;95.80;;;;;;6176317;23;20011;-93
2021/12/22 04:17:57;;;;;;;;;;;;;;;;;;;;;
2021/12/22 04:20:59;;;;;;;;;;;;;;;;;;;;;
2021/12/22 04:24:04;;;;;;;;;;;;;;;;;;;;;
2021/12/22 04:26:39;;;;;;;51.95;24.05;;;0.40;95.50;;;;;;6170588;23;20482;-92
2021/12/22 04:32:41;;;;;;;50.53;23.98;;;0.60;95.40;;;;;;6014115;23;20022;-91
2021/12/22 04:39:22;;;;;;;51.17;23.25;;;0.40;95.60;;;;;;6022756;23;20007;-91
2021/12/22 04:42:21;;;;;;;;;;;;;;;;;;;;;
2021/12/22 04:44:58;;;;;;;50.83;24.70;;;0.20;95.70;;;;;;6033575;23;20094;-89
2021/12/22 05:18:00;;;;;;;;;;;;;;;;;;;;;
2021/12/22 05:31:56;;;;;;;;;;;;;;;;;;;;;
2021/12/22 05:34:24;;;;;;;53.90;25.65;;;0.60;96.60;;;;;;5997174;23;20518;-90
2021/12/22 05:36:59;;;;;;;55.03;26.47;;;0.70;96.60;;;;;;6320022;22;19998;-92
2021/12/22 05:39:52;;;;;;;55.40;26.30;;;0.70;96.70;;;;;;6344171;22;20073;-92
2021/12/22 05:42:26;;;;;;;55.00;26.63;;;0.50;96.40;;;;;;6342279;22;20374;-91
2021/12/22 05:51:49;;;;;;;52.38;25.85;;;0.90;96.50;;;;;;6218058;23;20130;-93
2021/12/22 05:54:28;;;;;;;56.70;27.23;;;0.70;96.30;;;;;;6217883;23;20005;-92
2021/12/22 05:57:54;;;;;;;53.42;27.38;;;0.90;96.90;;;;;;6218118;23;20030;-91
2021/12/22 06:04:06;;;;;;;;;;;;;;;;;;;;;
2021/12/22 06:20:37;;;;;;;50.63;24.98;;;0.80;96.50;;;;;;5983343;23;20466;-91
2021/12/22 06:23:06;;;;;;;53.22;25.23;;;0.80;96.50;;;;;;6041387;23;20014;-91
2021/12/22 06:25:34;;;;;;;;;;;0.80;96.50;;;;;;6264468;22;20022;-92
2021/12/22 06:31:58;;;;;;;;;;;;;;;;;;;;;
2021/12/22 06:35:13;;;;;;;55.75;25.45;;;0.90;96.30;;;;;;6211621;23;20417;-92
2021/12/22 06:47:28;;;;;;;54.30;26.17;;;0.80;96.40;;;;;;6238037;23;19996;-93
2021/12/22 06:53:37;;;;;;;49.33;25.70;;;0.80;96.20;;;;;;6160811;22;20433;-93
2021/12/22 06:56:15;;;;;;;57.92;26.98;;;0.80;96.30;;;;;;6304660;22;20007;-92
2021/12/22 06:58:41;;;;;;;59.05;27.30;;;0.70;96.30;;;;;;6308709;22;20075;-91
2021/12/22 07:01:08;;;;;;;55.75;27.60;;;0.90;96.30;;;;;;6299439;22;20414;-90
2021/12/22 07:03:37;;;;;;;56.28;26.88;;;0.90;96.40;;;;;;6301715;22;20019;-91
2021/12/22 07:06:03;;;;;;;54.13;27.20;;;0.90;96.40;;;;;;6301522;22;20010;-92
2021/12/22 07:08:28;;;;;;;59.15;27.13;;;1.20;96.50;;;;;;6302518;22;20090;-90
2021/12/22 07:10:57;;;;;;;58.25;27.27;;;1.10;96.40;;;;;;6308723;22;19995;-91
2021/12/22 07:14:13;;;;;;;;;;;;;;;;;;;;;
2021/12/22 07:16:39;;;;;;;55.17;27.75;;;0.90;96.20;;;;;;6239524;23;20087;-92
2021/12/22 07:19:13;;;;;;;54.13;26.60;;;0.90;96.20;;;;;;6213520;23;20028;-92
2021/12/22 07:21:41;;;;;;;52.72;26.80;;;1.10;96.20;;;;;;6208618;23;20012;-90
2021/12/22 07:24:10;;;;;;;;;;;0.80;96.20;;;;;;6212692;23;20012;-92
2021/12/22 07:26:37;;;;;;;;;;;0.80;96.30;;;;;;6214051;23;19904;-91
2021/12/22 07:29:26;;;;;;;52.35;24.90;;;0.80;96.30;;;;;;6239677;23;19901;-90
2021/12/22 07:31:52;;;;;;;48.25;24.67;;;0.80;96.40;;;;;;6212858;23;20050;-92
2021/12/22 07:34:37;;;;;;;48.55;25.13;;;0.90;96.40;;;;;;6212761;23;20000;-90
2021/12/22 07:37:23;;;;;;;55.88;27.23;;;0.80;96.30;;;;;;6214426;23;20019;-92
2021/12/22 07:39:52;;;;;;;55.70;26.75;;;0.80;96.30;;;;;;6214295;23;20008;-91
2021/12/22 07:42:23;;;;;;;52.53;27.05;;;0.60;96.10;;;;;;6214558;23;20020;-92
2021/12/22 07:44:48;;;;;;;54.42;26.20;;;0.70;96.10;;;;;;6214421;23;20005;-90
2021/12/22 07:47:14;;;;;;;52.58;27.05;;;0.70;96.20;;;;;;6249016;22;20373;-90
2021/12/22 07:49:43;;;;;;;57.08;27.40;;;0.90;96.30;;;;;;6302545;22;20010;-90
2021/12/22 07:52:09;;;;;;;;;;;0.70;96.30;;;;;;6302693;22;20045;-91
2021/12/22 07:54:35;;;;;;;52.08;26.10;;;0.80;96.40;;;;;;6302858;22;19899;-90
2021/12/22 07:57:00;;;;;;;55.40;25.83;;;1.00;96.50;;;;;;6304081;22;20041;-91
2021/12/22 07:59:26;;;;;;;52.92;26.00;;;0.70;96.30;;;;;;6302932;22;20010;-92
2021/12/22 08:02:27;;;;;;;55.47;26.00;;;0.80;96.30;;;;;;6303544;22;20003;-90
2021/12/22 08:05:21;;;;;;;58.33;26.90;;;0.70;96.40;;;;;;6302370;22;20300;-91
2021/12/22 08:07:48;;;;;;;52.45;25.60;;;0.70;96.50;;;;;;6302386;22;20431;-92
2021/12/22 08:10:16;;;;;;;50.33;26.47;;;0.70;96.50;;;;;;6304040;22;20003;-90
2021/12/22 08:13:03;;;;;;;58.35;26.00;;;0.50;96.30;;;;;;6302280;22;20096;-91
2021/12/22 08:15:29;;;;;;;48.05;24.80;;;0.80;96.40;;;;;;6302410;22;20014;-90
2021/12/22 08:18:15;;;;;;;51.05;26.30;;;1.00;96.40;;;;;;6302198;22;20011;-92
2021/12/22 08:20:51;;;;;;;53.38;26.08;;;1.20;96.50;;;;;;6327791;22;20026;-92
2021/12/22 08:23:18;;;;;;;52.28;25.85;;;1.00;96.30;;;;;;6302387;22;20019;-90
2021/12/22 08:25:59;;;;;;;49.50;25.40;;;0.90;96.20;;;;;;6297370;22;20451;-91
2021/12/22 08:28:46;;;;;;;53.95;25.70;;;0.80;96.20;;;;;;6301089;22;20007;-93
2021/12/22 08:31:48;;;;;;;52.08;26.08;;;1.10;96.40;;;;;;6302172;22;19999;-92
2021/12/22 08:34:34;;;;;;;;;;;;;;;;;;;;;
2021/12/22 08:40:07;;;;;;;53.83;25.00;;;0.80;96.40;;;;;;6313017;22;20030;-92
2021/12/22 08:46:13;;;;;;;;;;;;;;;;;;;;;
2021/12/22 08:56:24;;;;;;;57.53;26.42;;;0.90;96.40;;;;;;6234677;23;20019;-90
2021/12/22 08:58:56;;;;;;;52.20;26.08;;;0.90;96.50;;;;;;6230625;23;20004;-91
2021/12/22 09:01:26;;;;;;;53.03;26.17;;;1.00;96.70;;;;;;6239883;23;20008;-92
2021/12/22 09:04:02;;;;;;;54.75;26.20;;;1.10;96.60;;;;;;6273312;22;20011;-91
2021/12/22 09:06:28;;;;;;;49.95;25.33;;;1.00;96.50;;;;;;6303342;22;20079;-89
2021/12/22 09:09:04;;;;;;;;;;;;;;;;;;;;;
2021/12/22 09:11:30;;;;;;;55.47;27.23;;;1.10;96.30;;;;;;6304460;22;20726;-92
2021/12/22 09:13:59;;;;;;;53.67;26.98;;;1.40;96.50;;;;;;6303615;22;20039;-92
2021/12/22 09:16:25;;;;;;;50.35;25.88;;;1.00;96.50;;;;;;6298586;22;20029;-94
2021/12/22 09:18:50;;;;;;;58.30;27.85;;;1.00;96.40;;;;;;6301378;22;20015;-92
2021/12/22 09:21:16;;;;;;;50.80;25.52;;;0.80;96.50;;;;;;6302442;22;20033;-94
2021/12/22 09:23:42;;;;;;;50.95;26.52;;;1.00;96.40;;;;;;6301957;22;20397;-91
2021/12/22 09:26:11;;;;;;;51.42;28.00;;;1.10;96.40;;;;;;6303474;22;20003;-93
2021/12/22 09:28:39;;;;;;;54.25;26.85;;;1.00;96.40;;;;;;6303266;22;20011;-94
2021/12/22 09:31:06;;;;;;;51.70;27.00;;;1.10;96.60;;;;;;6302614;22;20009;-92
2021/12/22 09:33:33;;;;;;;52.22;25.98;;;1.40;96.70;;;;;;6299993;22;20018;-92
2021/12/22 09:35:59;;;;;;;52.47;26.55;;;1.20;96.50;;;;;;6301746;22;20003;-93
2021/12/22 09:38:25;;;;;;;51.22;26.58;;;1.20;96.50;;;;;;6301934;22;19995;-93
2021/12/22 09:40:51;;;;;;;53.17;27.02;;;1.20;96.60;;;;;;6301928;22;20458;-92
2021/12/22 09:43:17;;;;;;;56.72;26.67;;;1.20;96.60;;;;;;6302439;22;20015;-92
2021/12/22 09:45:50;;;;;;;56.33;27.63;;;1.30;96.50;;;;;;6301209;22;20010;-92
2021/12/22 09:48:31;;;;;;;54.13;27.20;;;1.30;96.40;;;;;;6304272;22;20003;-93
2021/12/22 09:53:27;;;;;;;;;;;1.30;96.40;;;;;;6307575;22;20014;-94
2021/12/22 09:55:58;;;;;;;47.83;25.42;;;1.50;96.30;;;;;;6305287;22;19905;-93
2021/12/22 09:58:33;;;;;;;56.55;26.73;;;1.30;96.50;;;;;;6305302;22;20011;-93
2021/12/22 10:00:59;;;;;;;50.78;25.38;;;1.50;96.60;;;;;;6304840;22;20004;-93
2021/12/22 10:03:34;;;;;;;54.40;26.73;;;1.50;96.60;;;;;;6305385;22;20089;-93
2021/12/22 10:06:05;;;;;;;50.88;26.73;;;1.40;96.60;;;;;;6306000;22;20066;-92
2021/12/22 10:08:31;;;;;;;48.05;26.52;;;1.40;96.50;;;;;;6304958;22;20007;-95
2021/12/22 10:11:10;;;;;;;52.17;27.90;;;1.40;96.30;;;;;;6307978;22;19995;-93
2021/12/22 10:13:37;;;;;;;51.67;25.60;;;1.60;96.30;;;;;;6304105;22;19999;-91
2021/12/22 10:16:22;;;;;;;51.67;26.73;;;1.50;96.30;;;;;;6303013;22;20007;-92
2021/12/22 10:19:00;;;;;;;52.55;27.60;;;1.50;96.20;;;;;;6305169;22;20003;-91
2021/12/22 10:21:44;;;;;;;;;;;1.50;96.10;;;;;;6304771;22;20037;-90
2021/12/22 10:27:49;;;;;;;;;;;;;;;;;;;;;
2021/12/22 10:30:25;;;;;;;48.05;26.20;;;1.50;96.40;;;;;;6305489;22;20082;-91
2021/12/22 10:33:06;;;;;;;50.33;26.92;;;1.90;96.50;;;;;;6303012;22;20022;-91
2021/12/22 10:35:53;;;;;;;51.75;26.45;;;1.70;96.70;;;;;;6303021;22;20010;-91
2021/12/22 10:38:59;;;;;;;51.15;27.10;;;1.70;96.60;;;;;;6175594;22;20011;-93
2021/12/22 10:41:54;;;;;;;55.05;26.70;;;2.00;96.40;;;;;;6325938;22;20018;-93
2021/12/22 10:44:55;;;;;;;;;;;;;;;;;;;;;
2021/12/22 10:54:13;;;;;;;;;;;;;;;;;;;;;
2021/12/22 12:22:04;;;;;;;;;;;;;;;;;;;;;
2021/12/22 12:24:47;;;;;;;;;;;;;;;;;;;;;
2021/12/22 12:27:52;;;;;;;;;;;;;;;;;;;;;
2021/12/22 12:30:42;;;;;;;48.80;25.58;;;2.20;95.50;;;;;;6344843;22;20073;-92
2021/12/22 12:33:20;;;;;;;47.22;25.95;;;2.50;95.20;;;;;;6315669;22;20019;-90
2021/12/22 12:36:00;;;;;;;46.90;25.90;;;2.20;95.30;;;;;;6316263;22;20064;-89
2021/12/22 12:38:42;;;;;;;50.53;26.20;;;2.20;95.30;;;;;;6316001;22;20010;-88
2021/12/22 12:44:29;;;;;;;50.83;26.13;;;2.20;95.30;;;;;;6171374;23;20028;-90
2021/12/22 12:46:55;;;;;;;52.60;28.42;;;2.30;95.50;;;;;;6324000;22;20067;-90
2021/12/22 12:49:23;;;;;;;50.42;27.63;;;2.70;95.60;;;;;;6344430;22;20033;-91
2021/12/22 12:51:59;;;;;;;;;;;;;;;;;;;;;
2021/12/22 12:54:49;;;;;;;49.92;26.63;;;2.30;95.40;;;;;;6343075;22;20085;-90
2021/12/22 12:57:22;;;;;;;51.45;26.92;;;2.40;95.40;;;;;;6314694;22;20042;-89
2021/12/22 13:00:25;;;;;;;61.47;28.35;;;2.40;95.40;;;;;;6314870;22;20010;-90
2021/12/22 13:03:06;;;;;;;56.55;31.13;;;2.70;95.60;;;;;;6315202;22;20461;-89
2021/12/22 13:05:54;;;;;;;61.63;29.73;;;2.50;95.40;;;;;;6307819;22;20034;-89
2021/12/22 13:08:39;;;;;;;54.70;28.33;;;2.60;95.30;;;;;;6308220;22;20009;-91
2021/12/22 13:11:49;;;;;;;54.72;26.98;;;2.50;95.30;;;;;;6336099;22;20006;-90
2021/12/22 13:17:52;;;;;;;47.47;25.92;;;2.10;95.30;;;;;;6335564;22;20078;-90
2021/12/22 13:20:48;;;;;;;;;;;;;;;;;;;;;
2021/12/22 13:23:19;;;;;;;47.63;25.30;;;2.50;95.40;;;;;;6336848;22;20410;-88
2021/12/22 13:25:52;;;;;;;52.40;27.13;;;2.50;95.40;;;;;;6309168;22;20347;-89
2021/12/22 13:28:32;;;;;;;46.90;26.30;;;2.50;95.30;;;;;;6308440;22;20457;-90
2021/12/22 13:31:16;;;;;;;51.15;26.27;;;2.50;95.10;;;;;;6307660;22;20007;-90
2021/12/22 13:34:01;;;;;;;49.35;26.35;;;2.50;95.10;;;;;;6307724;22;20450;-89
2021/12/22 13:37:00;;;;;;;;;;;;;;;;;;;;;
2021/12/22 13:39:49;;;;;;;45.58;25.35;;;2.40;95.20;;;;;;6334118;22;20407;-90
2021/12/22 13:42:22;;;;;;;45.75;25.38;;;2.50;95.20;;;;;;6308789;22;20007;-90
2021/12/22 13:44:48;;;;;;;50.20;26.02;;;2.50;95.90;;;;;;6309326;22;20018;-89
2021/12/22 13:47:16;;;;;;;48.17;26.05;;;2.50;95.70;;;;;;6316889;22;20006;-89
2021/12/22 13:49:42;;;;;;;48.08;26.27;;;2.50;95.60;;;;;;6342861;22;20427;-89
2021/12/22 13:52:17;;;;;;;48.00;26.73;;;2.50;95.30;;;;;;6316634;22;20066;-88
2021/12/22 13:54:46;;;;;;;53.33;28.60;;;2.50;95.30;;;;;;6308377;22;20081;-90
2021/12/22 13:57:35;;;;;;;;;;;;;;;;;;;;;
2021/12/22 14:00:09;;;;;;;50.38;27.20;;;2.50;95.40;;;;;;6335522;22;20513;-88
2021/12/22 14:02:57;;;;;;;51.67;26.85;;;2.50;95.50;;;;;;6307680;22;20007;-89
2021/12/22 14:05:45;;;;;;;50.60;26.95;;;2.60;95.50;;;;;;6307470;22;20037;-89
2021/12/22 14:08:26;;;;;;;;;;;2.80;95.60;;;;;;6308424;22;20010;-90
2021/12/22 14:10:59;;;;;;;48.67;25.75;;;2.50;95.30;;;;;;6335519;22;19903;-90
2021/12/22 14:13:30;;;;;;;47.35;25.55;;;2.50;95.40;;;;;;6307478;22;20015;-89
2021/12/22 14:16:04;;;;;;;52.78;27.13;;;2.70;95.50;;;;;;6306816;22;20026;-88
2021/12/22 14:18:53;;;;;;;;;;;;;;;;;;;;;
2021/12/22 14:21:29;;;;;;;48.40;25.92;;;2.70;95.40;;;;;;6336656;22;20086;-90
2021/12/22 14:24:07;;;;;;;47.90;25.88;;;2.60;95.30;;;;;;6307807;22;20014;-89
2021/12/22 14:27:00;;;;;;;51.70;27.65;;;2.50;95.40;;;;;;6307727;22;19999;-90
2021/12/22 14:29:58;;;;;;;48.63;26.65;;;2.50;95.40;;;;;;6335049;22;19999;-89
2021/12/22 14:32:31;;;;;;;51.08;26.80;;;2.30;95.20;;;;;;6307099;22;20098;-89
2021/12/22 14:35:08;;;;;;;49.15;26.90;;;2.60;95.40;;;;;;6307409;22;20003;-89
2021/12/22 14:38:01;;;;;;;48.35;26.27;;;2.40;95.50;;;;;;6335126;22;20040;-89
2021/12/22 14:40:29;;;;;;;50.10;27.05;;;2.40;95.40;;;;;;6307342;22;20049;-88
2021/12/22 14:43:11;;;;;;;50.60;28.67;;;2.40;95.50;;;;;;6307084;22;20006;-90
2021/12/22 14:45:42;;;;;;;45.42;26.88;;;2.40;95.70;;;;;;6307657;22;20233;-91
2021/12/22 14:48:30;;;;;;;51.72;27.38;;;2.40;95.70;;;;;;6307490;22;19999;-88
2021/12/22 14:51:21;;;;;;;51.05;27.48;;;2.40;95.70;;;;;;6307549;22;20007;-90
2021/12/22 14:54:03;;;;;;;49.42;27.27;;;2.60;95.60;;;;;;6307098;22;20105;-89
2021/12/22 14:57:00;;;;;;;;;;;;;;;;;;;;;
2021/12/22 14:59:36;;;;;;;;;;;;;;;;;;;;;
2021/12/22 15:02:10;;;;;;;50.42;27.60;;;2.60;95.50;;;;;;6335237;22;20090;-89
2021/12/22 15:04:38;;;;;;;51.35;27.52;;;2.30;95.50;;;;;;6307631;22;20024;-89
2021/12/22 15:07:42;;;;;;;;;;;;;;;;;;;;;
2021/12/22 15:09:59;;;;;;;49.40;26.52;;;2.30;95.50;;;;;;6325366;22;20342;-91
2021/12/22 15:12:27;;;;;;;51.87;26.77;;;2.40;95.70;;;;;;6307130;22;20014;-91
2021/12/22 15:15:03;;;;;;;52.53;28.30;;;2.40;95.60;;;;;;6308589;22;20002;-89
2021/12/22 15:17:51;;;;;;;;;;;;;;;;;;;;;
2021/12/22 15:20:22;;;;;;;53.25;27.90;;;2.30;95.50;;;;;;6334787;22;20078;-90
2021/12/22 15:22:51;;;;;;;54.15;26.35;;;2.40;95.60;;;;;;6307358;22;20063;-90
2021/12/22 15:25:24;;;;;;;52.65;27.50;;;2.20;95.70;;;;;;6307660;22;20006;-91
2021/12/22 15:28:13;;;;;;;47.53;27.75;;;2.20;95.60;;;;;;6335992;22;19999;-92
2021/12/22 15:31:07;;;;;;;51.72;26.13;;;2.40;95.70;;;;;;6307418;22;20006;-90
2021/12/22 15:33:42;;;;;;;51.92;27.63;;;2.40;95.80;;;;;;6307078;22;20045;-90
2021/12/22 15:36:23;;;;;;;49.78;27.80;;;2.10;95.70;;;;;;6307493;22;20001;-88
2021/12/22 15:38:59;;;;;;;50.72;27.80;;;2.30;95.80;;;;;;6307435;22;20007;-91
2021/12/22 15:41:32;;;;;;;52.17;27.45;;;2.20;95.80;;;;;;6308565;22;20389;-92
2021/12/22 15:43:57;;;;;;;57.38;28.48;;;2.30;95.80;;;;;;6307644;22;20003;-89
2021/12/22 15:46:28;;;;;;;50.85;26.95;;;2.10;95.70;;;;;;6335954;22;20009;-91
2021/12/22 15:48:56;;;;;;;50.17;26.90;;;2.20;95.90;;;;;;6308753;22;20006;-92
2021/12/22 15:51:31;;;;;;;48.35;26.73;;;2.20;95.80;;;;;;6308758;22;20036;-92
2021/12/22 15:54:04;;;;;;;53.40;27.83;;;2.00;96.00;;;;;;6307261;22;20121;-90
2021/12/22 15:57:00;;;;;;;;;;;;;;;;;;;;;
2021/12/22 15:59:39;;;;;;;;;;;;;;;;;;;;;
2021/12/22 16:02:16;;;;;;;49.58;26.88;;;2.10;96.00;;;;;;6334931;22;20414;-90
2021/12/22 16:05:04;;;;;;;;;;;;;;;;;;;;;
2021/12/22 16:07:51;;;;;;;52.70;27.60;;;1.90;96.00;;;;;;6334798;22;20094;-91
2021/12/22 16:10:29;;;;;;;54.78;28.73;;;2.00;95.90;;;;;;6307956;22;20610;-91
2021/12/22 16:13:07;;;;;;;52.88;28.50;;;2.00;96.00;;;;;;6308285;22;20033;-90
2021/12/22 16:15:42;;;;;;;56.03;28.52;;;1.90;96.00;;;;;;6307401;22;20007;-90
2021/12/22 16:18:17;;;;;;;57.75;29.27;;;2.00;96.10;;;;;;6308231;22;20086;-89
2021/12/22 16:20:55;;;;;;;;;;;;;;;;;;;;;
2021/12/22 16:23:51;;;;;;;;;;;;;;;;;;;;;
2021/12/22 16:26:25;;;;;;;53.28;27.73;;;1.90;96.10;;;;;;6341350;22;20035;-91
2021/12/22 16:29:18;;;;;;;54.28;29.50;;;1.90;96.10;;;;;;6307850;22;20461;-90
2021/12/22 16:31:47;;;;;;;56.80;27.75;;;2.10;96.20;;;;;;6307109;22;20010;-89
2021/12/22 16:34:18;;;;;;;49.95;28.40;;;1.90;96.20;;;;;;6307456;22;20018;-92
2021/12/22 16:36:49;;;;;;;56.65;28.92;;;1.90;96.30;;;;;;6307376;22;20009;-90
2021/12/22 16:42:46;;;;;;;52.75;28.38;;;1.80;96.30;;;;;;6315577;22;20006;-89
2021/12/22 16:45:14;;;;;;;;;;;1.50;96.20;;;;;;6291429;22;20006;-90
2021/12/22 16:47:53;;;;;;;59.67;29.92;;;2.00;96.40;;;;;;6309105;22;19899;-92
2021/12/22 16:50:27;;;;;;;57.88;28.83;;;1.80;96.50;;;;;;6309323;22;20364;-90
2021/12/22 16:52:57;;;;;;;55.72;29.20;;;1.90;96.50;;;;;;6309093;22;20021;-91
2021/12/22 16:55:29;;;;;;;56.85;29.88;;;2.00;96.60;;;;;;6308899;22;20026;-90
2021/12/22 16:58:14;;;;;;;57.00;29.92;;;1.80;96.70;;;;;;6309860;22;20013;-89
2021/12/22 17:00:52;;;;;;;;;;;;;;;;;;;;;
2021/12/22 17:03:32;;;;;;;;;;;1.90;96.70;;;;;;6336755;22;20402;-90
2021/12/22 17:06:32;;;;;;;;;;;;;;;;;;;;;
2021/12/22 17:09:03;;;;;;;56.08;28.77;;;1.80;96.90;;;;;;6338124;22;20098;-91
2021/12/22 17:11:44;;;;;;;;;;;;;;;;;;;;;
2021/12/22 17:14:30;;;;;;;;;;;;;;;;;;;;;
2021/12/22 17:17:11;;;;;;;58.30;30.83;;;2.00;96.80;;;;;;6337357;22;20082;-91
2021/12/22 17:19:37;;;;;;;61.35;30.52;;;1.80;96.70;;;;;;6308592;22;20026;-90
2021/12/22 17:22:31;;;;;;;57.78;31.30;;;1.80;96.70;;;;;;6308760;22;20439;-90
2021/12/22 17:25:09;;;;;;;;;;;;;;;;;;;;;
2021/12/22 17:27:43;;;;;;;60.17;30.50;;;1.80;96.70;;;;;;6336337;22;20506;-90
2021/12/22 17:30:17;;;;;;;68.53;31.70;;;1.80;96.70;;;;;;6308396;22;20426;-90
2021/12/22 17:32:52;;;;;;;61.85;30.15;;;1.70;96.80;;;;;;6308468;22;20021;-89
2021/12/22 17:35:21;;;;;;;56.83;30.92;;;1.70;96.60;;;;;;6308419;22;20006;-90
2021/12/22 17:37:47;;;;;;;56.00;29.52;;;1.90;96.90;;;;;;6308528;22;20006;-89
2021/12/22 17:40:49;;;;;;;;;;;;;;;;;;;;;
2021/12/22 17:43:09;;;;;;;57.13;30.38;;;1.60;96.70;;;;;;6328430;22;20002;-89
2021/12/22 17:45:42;;;;;;;58.40;31.92;;;1.90;96.70;;;;;;6336310;22;20025;-90
2021/12/22 17:48:10;;;;;;;58.92;30.33;;;1.80;96.80;;;;;;6308424;22;20022;-91
2021/12/22 17:50:37;;;;;;;63.40;31.98;;;1.60;96.70;;;;;;6308526;22;20002;-90
2021/12/22 17:53:19;;;;;;;58.67;31.73;;;1.60;96.80;;;;;;6308450;22;20064;-89
2021/12/22 17:55:45;;;;;;;64.63;32.47;;;1.80;96.70;;;;;;6308318;22;20028;-90
2021/12/22 17:58:33;;;;;;;;;;;;;;;;;;;;;
2021/12/22 18:01:30;;;;;;;;;;;;;;;;;;;;;
2021/12/22 18:04:37;;;;;;;;;;;;;;;;;;;;;
2021/12/22 18:10:23;;;;;;;;;;;;;;;;;;;;;
2021/12/22 18:13:08;;;;;;;58.15;31.38;;;1.60;96.80;;;;;;6335806;22;20086;-89
2021/12/22 18:15:56;;;;;;;;;;;;;;;;;;;;;
2021/12/22 18:18:28;;;;;;;75.40;32.55;;;1.50;96.80;;;;;;6336248;22;20074;-89
2021/12/22 18:20:54;;;;;;;66.18;32.47;;;1.60;97.00;;;;;;6308060;22;20170;-91
2021/12/22 18:23:24;;;;;;;60.35;31.75;;;1.70;97.20;;;;;;6308299;22;20030;-91
2021/12/22 18:26:05;;;;;;;;;;;;;;;;;;;;;
2021/12/22 18:28:41;;;;;;;59.45;32.13;;;1.70;97.10;;;;;;6337150;22;20498;-89